createdAt,value
2018-07-06T00:00:29.445Z,1008.25
2018-07-06T00:01:29.372Z,1008.24
2018-07-06T00:02:29.332Z,1008.27
2018-07-06T00:03:29.300Z,1008.18
2018-07-06T00:04:29.270Z,1008.25
2018-07-06T00:05:29.249Z,1008.27
2018-07-06T00:06:29.203Z,1008.30
2018-07-06T00:07:29.178Z,1008.25
2018-07-06T00:08:29.166Z,1008.23
2018-07-06T00:09:29.106Z,1008.27
2018-07-06T00:10:29.079Z,1008.26
2018-07-06T00:11:29.076Z,1008.29
2018-07-06T00:12:29.067Z,1008.29
2018-07-06T00:13:28.995Z,1008.26
2018-07-06T00:14:28.961Z,1008.32
2018-07-06T00:15:28.917Z,1008.31
2018-07-06T00:16:28.880Z,1008.29
2018-07-06T00:17:28.881Z,1008.27
2018-07-06T00:18:28.817Z,1008.27
2018-07-06T00:19:28.796Z,1008.19
2018-07-06T00:20:28.768Z,1008.28
2018-07-06T00:21:28.724Z,1008.25
2018-07-06T00:22:28.699Z,1008.25
2018-07-06T00:23:28.683Z,1008.26
2018-07-06T00:24:28.626Z,1008.24
2018-07-06T00:25:29.178Z,1008.25
2018-07-06T00:26:28.586Z,1008.21
2018-07-06T00:27:28.554Z,1008.26
2018-07-06T00:28:28.497Z,1008.28
2018-07-06T00:29:28.466Z,1008.25
2018-07-06T00:30:30.268Z,1008.24
2018-07-06T00:31:28.396Z,1008.29
2018-07-06T00:32:28.366Z,1008.30
2018-07-06T00:33:28.364Z,1008.25
2018-07-06T00:34:28.319Z,1008.33
2018-07-06T00:35:28.502Z,1008.30
2018-07-06T00:36:28.235Z,1008.27
2018-07-06T00:37:28.207Z,1008.28
2018-07-06T00:38:28.170Z,1008.26
2018-07-06T00:39:28.154Z,1008.30
2018-07-06T00:40:28.134Z,1008.30
2018-07-06T00:41:28.081Z,1008.34
2018-07-06T00:42:28.042Z,1008.31
2018-07-06T00:43:28.023Z,1008.34
2018-07-06T00:44:27.977Z,1008.36
2018-07-06T00:45:27.946Z,1008.35
2018-07-06T00:46:27.912Z,1008.37
2018-07-06T00:47:27.906Z,1008.39
2018-07-06T00:48:27.845Z,1008.41
2018-07-06T00:49:27.821Z,1008.38
2018-07-06T00:50:27.787Z,1008.34
2018-07-06T00:51:27.751Z,1008.36
2018-07-06T00:52:27.714Z,1008.43
2018-07-06T00:53:27.700Z,1008.35
2018-07-06T00:54:27.674Z,1008.45
2018-07-06T00:55:27.629Z,1008.42
2018-07-06T00:56:27.599Z,1008.47
2018-07-06T00:57:27.566Z,1008.50
2018-07-06T00:58:27.524Z,1008.48
2018-07-06T00:59:27.503Z,1008.46
2018-07-06T01:00:27.457Z,1008.51
2018-07-06T01:01:27.497Z,1008.50
2018-07-06T01:02:27.403Z,1008.53
2018-07-06T01:03:27.357Z,1008.48
2018-07-06T01:04:27.346Z,1008.47
2018-07-06T01:05:27.296Z,1008.52
2018-07-06T01:06:27.274Z,1008.53
2018-07-06T01:07:27.252Z,1008.54
2018-07-06T01:08:27.207Z,1008.53
2018-07-06T01:09:27.165Z,1008.53
2018-07-06T01:10:27.141Z,1008.50
2018-07-06T01:11:27.106Z,1008.52
2018-07-06T01:12:27.082Z,1008.48
2018-07-06T01:13:27.068Z,1008.51
2018-07-06T01:14:27.003Z,1008.48
2018-07-06T01:15:26.987Z,1008.56
2018-07-06T01:16:26.956Z,1008.57
2018-07-06T01:17:27.136Z,1008.49
2018-07-06T01:18:26.913Z,1008.49
2018-07-06T01:19:26.855Z,1008.60
2018-07-06T01:20:26.808Z,1008.55
2018-07-06T01:21:26.775Z,1008.62
2018-07-06T01:22:26.743Z,1008.57
2018-07-06T01:23:26.711Z,1008.52
2018-07-06T01:24:26.684Z,1008.58
2018-07-06T01:25:26.647Z,1008.58
2018-07-06T01:26:26.634Z,1008.63
2018-07-06T01:27:26.577Z,1008.59
2018-07-06T01:28:26.566Z,1008.60
2018-07-06T01:29:26.512Z,1008.66
2018-07-06T01:30:26.485Z,1008.67
2018-07-06T01:31:26.467Z,1008.62
2018-07-06T01:32:26.411Z,1008.69
2018-07-06T01:33:26.384Z,1008.64
2018-07-06T01:34:26.387Z,1008.61
2018-07-06T01:35:26.316Z,1008.68
2018-07-06T01:36:26.286Z,1008.61
2018-07-06T01:37:26.254Z,1008.67
2018-07-06T01:38:26.221Z,1008.61
2018-07-06T01:39:26.192Z,1008.65
2018-07-06T01:40:26.151Z,1008.68
2018-07-06T01:41:26.116Z,1008.67
2018-07-06T01:42:26.088Z,1008.68
2018-07-06T01:43:26.052Z,1008.69
2018-07-06T01:44:26.020Z,1008.74
2018-07-06T01:45:26.018Z,1008.70
2018-07-06T01:46:25.976Z,1008.74
2018-07-06T01:47:25.925Z,1008.76
2018-07-06T01:48:25.888Z,1008.74
2018-07-06T01:49:25.853Z,1008.73
2018-07-06T01:50:25.836Z,1008.81
2018-07-06T01:51:25.789Z,1008.75
2018-07-06T01:52:25.761Z,1008.82
2018-07-06T01:53:25.748Z,1008.77
2018-07-06T01:54:25.702Z,1008.80
2018-07-06T01:55:25.664Z,1008.78
2018-07-06T01:56:25.626Z,1008.79
2018-07-06T01:57:25.592Z,1008.84
2018-07-06T01:58:25.560Z,1008.78
2018-07-06T01:59:25.530Z,1008.85
2018-07-06T02:00:25.521Z,1008.85
2018-07-06T02:01:25.465Z,1008.87
2018-07-06T02:02:25.434Z,1008.83
2018-07-06T02:03:25.397Z,1008.87
2018-07-06T02:04:25.370Z,1008.88
2018-07-06T02:05:25.334Z,1008.93
2018-07-06T02:06:25.297Z,1008.92
2018-07-06T02:07:25.268Z,1008.90
2018-07-06T02:08:25.235Z,1008.90
2018-07-06T02:09:25.202Z,1008.94
2018-07-06T02:10:25.168Z,1008.92
2018-07-06T02:11:25.144Z,1008.91
2018-07-06T02:12:25.112Z,1008.91
2018-07-06T02:13:25.080Z,1008.89
2018-07-06T02:14:25.031Z,1008.88
2018-07-06T02:15:25.005Z,1008.90
2018-07-06T02:16:24.978Z,1008.87
2018-07-06T02:17:24.949Z,1008.97
2018-07-06T02:18:24.960Z,1008.98
2018-07-06T02:19:24.908Z,1008.92
2018-07-06T02:20:24.862Z,1008.97
2018-07-06T02:21:24.813Z,1008.91
2018-07-06T02:22:24.790Z,1008.86
2018-07-06T02:23:24.756Z,1008.89
2018-07-06T02:24:25.097Z,1008.94
2018-07-06T02:25:24.690Z,1008.82
2018-07-06T02:26:24.652Z,1008.94
2018-07-06T02:27:24.609Z,1008.96
2018-07-06T02:28:24.572Z,1008.94
2018-07-06T02:29:24.541Z,1008.89
2018-07-06T02:30:24.505Z,1008.95
2018-07-06T02:31:24.474Z,1008.93
2018-07-06T02:32:24.453Z,1008.93
2018-07-06T02:33:24.414Z,1009.00
2018-07-06T02:34:24.376Z,1008.98
2018-07-06T02:35:24.371Z,1009.00
2018-07-06T02:36:24.308Z,1009.01
2018-07-06T02:37:24.275Z,1008.96
2018-07-06T02:38:24.274Z,1008.98
2018-07-06T02:39:24.226Z,1009.02
2018-07-06T02:40:24.177Z,1009.02
2018-07-06T02:41:24.146Z,1009.06
2018-07-06T02:42:24.149Z,1009.07
2018-07-06T02:43:24.079Z,1009.02
2018-07-06T02:44:24.070Z,1009.07
2018-07-06T02:45:24.016Z,1009.08
2018-07-06T02:46:24.065Z,1009.11
2018-07-06T02:47:23.945Z,1009.08
2018-07-06T02:48:23.923Z,1009.03
2018-07-06T02:49:23.892Z,1009.06
2018-07-06T02:50:23.849Z,1009.05
2018-07-06T02:51:23.821Z,1009.04
2018-07-06T02:52:23.783Z,1009.04
2018-07-06T02:53:23.763Z,1009.05
2018-07-06T02:54:23.714Z,1009.08
2018-07-06T02:55:23.682Z,1009.10
2018-07-06T02:56:23.658Z,1009.02
2018-07-06T02:57:23.641Z,1009.04
2018-07-06T02:58:23.587Z,1009.06
2018-07-06T02:59:23.554Z,1009.13
2018-07-06T03:00:24.304Z,1009.17
2018-07-06T03:01:23.487Z,1009.18
2018-07-06T03:02:23.454Z,1009.17
2018-07-06T03:03:23.429Z,1009.13
2018-07-06T03:04:23.416Z,1009.11
2018-07-06T03:05:23.354Z,1009.13
2018-07-06T03:06:23.339Z,1009.19
2018-07-06T03:07:23.720Z,1009.16
2018-07-06T03:08:23.688Z,1009.18
2018-07-06T03:09:23.223Z,1009.21
2018-07-06T03:10:23.185Z,1009.20
2018-07-06T03:11:23.161Z,1009.16
2018-07-06T03:12:23.130Z,1009.20
2018-07-06T03:13:23.103Z,1009.22
2018-07-06T03:14:23.085Z,1009.22
2018-07-06T03:15:23.022Z,1009.19
2018-07-06T03:16:23.030Z,1009.19
2018-07-06T03:17:22.989Z,1009.19
2018-07-06T03:18:22.918Z,1009.15
2018-07-06T03:19:23.004Z,1009.18
2018-07-06T03:20:22.912Z,1009.26
2018-07-06T03:21:22.825Z,1009.24
2018-07-06T03:22:22.818Z,1009.27
2018-07-06T03:23:22.778Z,1009.28
2018-07-06T03:24:22.724Z,1009.29
2018-07-06T03:25:22.711Z,1009.29
2018-07-06T03:26:22.653Z,1009.28
2018-07-06T03:27:22.622Z,1009.30
2018-07-06T03:28:22.704Z,1009.35
2018-07-06T03:29:22.559Z,1009.35
2018-07-06T03:30:22.525Z,1009.35
2018-07-06T03:31:22.512Z,1009.34
2018-07-06T03:32:22.487Z,1009.30
2018-07-06T03:33:22.430Z,1009.34
2018-07-06T03:34:22.404Z,1009.35
2018-07-06T03:35:22.367Z,1009.33
2018-07-06T03:36:22.327Z,1009.36
2018-07-06T03:37:22.369Z,1009.32
2018-07-06T03:38:22.255Z,1009.41
2018-07-06T03:39:22.220Z,1009.42
2018-07-06T03:40:22.198Z,1009.42
2018-07-06T03:41:22.684Z,1009.44
2018-07-06T03:42:22.124Z,1009.42
2018-07-06T03:43:22.096Z,1009.40
2018-07-06T03:44:22.112Z,1009.39
2018-07-06T03:45:22.052Z,1009.48
2018-07-06T03:46:21.990Z,1009.49
2018-07-06T03:47:21.970Z,1009.49
2018-07-06T03:48:21.931Z,1009.52
2018-07-06T03:49:21.895Z,1009.52
2018-07-06T03:50:21.861Z,1009.47
2018-07-06T03:51:21.825Z,1009.47
2018-07-06T03:52:21.821Z,1009.35
2018-07-06T03:53:21.765Z,1009.45
2018-07-06T03:54:21.737Z,1009.44
2018-07-06T03:55:21.692Z,1009.41
2018-07-06T03:56:21.664Z,1009.44
2018-07-06T03:57:21.633Z,1009.46
2018-07-06T03:58:21.595Z,1009.44
2018-07-06T03:59:21.573Z,1009.51
2018-07-06T04:00:21.531Z,1009.53
2018-07-06T04:01:21.507Z,1009.55
2018-07-06T04:02:21.468Z,1009.60
2018-07-06T04:03:21.533Z,1009.62
2018-07-06T04:04:21.396Z,1009.57
2018-07-06T04:05:21.374Z,1009.60
2018-07-06T04:06:21.331Z,1009.57
2018-07-06T04:07:21.626Z,1009.58
2018-07-06T04:08:21.363Z,1009.65
2018-07-06T04:09:21.268Z,1009.68
2018-07-06T04:10:21.219Z,1009.69
2018-07-06T04:11:21.226Z,1009.68
2018-07-06T04:12:21.235Z,1009.71
2018-07-06T04:13:21.109Z,1009.65
2018-07-06T04:14:21.257Z,1009.64
2018-07-06T04:15:21.382Z,1009.64
2018-07-06T04:16:21.008Z,1009.61
2018-07-06T04:17:20.979Z,1009.67
2018-07-06T04:18:20.937Z,1009.64
2018-07-06T04:19:20.907Z,1009.71
2018-07-06T04:20:20.867Z,1009.70
2018-07-06T04:21:20.836Z,1009.69
2018-07-06T04:22:20.804Z,1009.71
2018-07-06T04:23:20.803Z,1009.68
2018-07-06T04:24:20.745Z,1009.71
2018-07-06T04:25:20.711Z,1009.69
2018-07-06T04:26:20.712Z,1009.68
2018-07-06T04:27:20.644Z,1009.72
2018-07-06T04:28:20.608Z,1009.75
2018-07-06T04:29:20.577Z,1009.71
2018-07-06T04:30:20.542Z,1009.71
2018-07-06T04:31:20.537Z,1009.76
2018-07-06T04:32:20.478Z,1009.80
2018-07-06T04:33:20.445Z,1009.83
2018-07-06T04:34:20.415Z,1009.84
2018-07-06T04:35:20.382Z,1009.81
2018-07-06T04:36:20.350Z,1009.93
2018-07-06T04:37:20.316Z,1009.94
2018-07-06T04:38:20.282Z,1009.87
2018-07-06T04:39:20.256Z,1009.93
2018-07-06T04:40:20.224Z,1009.95
2018-07-06T04:41:20.264Z,1009.99
2018-07-06T04:42:20.270Z,1009.91
2018-07-06T04:43:20.124Z,1009.88
2018-07-06T04:44:20.205Z,1009.88
2018-07-06T04:45:20.052Z,1009.87
2018-07-06T04:46:20.033Z,1009.89
2018-07-06T04:47:19.996Z,1009.90
2018-07-06T04:48:19.962Z,1009.93
2018-07-06T04:49:19.943Z,1010.00
2018-07-06T04:50:19.895Z,1009.99
2018-07-06T04:51:19.867Z,1010.00
2018-07-06T04:52:19.830Z,1010.07
2018-07-06T04:53:19.811Z,1010.11
2018-07-06T04:54:19.766Z,1010.11
2018-07-06T04:55:20.027Z,1010.17
2018-07-06T04:56:19.705Z,1010.16
2018-07-06T04:57:19.676Z,1010.16
2018-07-06T04:58:19.641Z,1010.19
2018-07-06T04:59:19.624Z,1010.20
2018-07-06T05:00:19.576Z,1010.20
2018-07-06T05:01:19.561Z,1010.17
2018-07-06T05:02:19.697Z,1010.25
2018-07-06T05:03:19.483Z,1010.20
2018-07-06T05:04:19.446Z,1010.23
2018-07-06T05:05:19.416Z,1010.21
2018-07-06T05:06:19.390Z,1010.23
2018-07-06T05:07:19.352Z,1010.27
2018-07-06T05:08:19.340Z,1010.29
2018-07-06T05:09:19.857Z,1010.35
2018-07-06T05:10:19.258Z,1010.33
2018-07-06T05:11:19.227Z,1010.36
2018-07-06T05:12:19.197Z,1010.33
2018-07-06T05:13:19.165Z,1010.35
2018-07-06T05:14:19.134Z,1010.39
2018-07-06T05:15:19.110Z,1010.37
2018-07-06T05:16:19.070Z,1010.40
2018-07-06T05:17:19.097Z,1010.40
2018-07-06T05:18:19.008Z,1010.41
2018-07-06T05:19:18.977Z,1010.45
2018-07-06T05:20:18.940Z,1010.40
2018-07-06T05:21:18.908Z,1010.37
2018-07-06T05:22:18.889Z,1010.41
2018-07-06T05:23:18.853Z,1010.36
2018-07-06T05:24:18.814Z,1010.40
2018-07-06T05:25:18.784Z,1010.40
2018-07-06T05:26:18.755Z,1010.41
2018-07-06T05:27:18.724Z,1010.47
2018-07-06T05:28:18.690Z,1010.37
2018-07-06T05:29:18.670Z,1010.41
2018-07-06T05:30:18.635Z,1010.44
2018-07-06T05:31:18.601Z,1010.44
2018-07-06T05:32:18.566Z,1010.48
2018-07-06T05:33:18.536Z,1010.47
2018-07-06T05:34:18.504Z,1010.42
2018-07-06T05:35:18.480Z,1010.36
2018-07-06T05:36:18.443Z,1010.47
2018-07-06T05:37:18.414Z,1010.46
2018-07-06T05:38:18.384Z,1010.49
2018-07-06T05:39:18.389Z,1010.43
2018-07-06T05:40:18.323Z,1010.48
2018-07-06T05:41:18.288Z,1010.51
2018-07-06T05:42:18.266Z,1010.54
2018-07-06T05:43:18.230Z,1010.60
2018-07-06T05:44:18.197Z,1010.57
2018-07-06T05:45:18.167Z,1010.64
2018-07-06T05:46:18.193Z,1010.58
2018-07-06T05:47:18.105Z,1010.61
2018-07-06T05:48:18.752Z,1010.54
2018-07-06T05:49:18.052Z,1010.59
2018-07-06T05:50:18.016Z,1010.65
2018-07-06T05:51:17.985Z,1010.65
2018-07-06T05:52:17.951Z,1010.65
2018-07-06T05:53:17.924Z,1010.67
2018-07-06T05:54:17.944Z,1010.69
2018-07-06T05:55:17.860Z,1010.70
2018-07-06T05:56:17.836Z,1010.70
2018-07-06T05:57:17.816Z,1010.69
2018-07-06T05:58:17.772Z,1010.71
2018-07-06T05:59:17.751Z,1010.70
2018-07-06T06:00:17.713Z,1010.72
2018-07-06T06:01:17.680Z,1010.73
2018-07-06T06:02:17.658Z,1010.78
2018-07-06T06:03:17.659Z,1010.77
2018-07-06T06:04:17.591Z,1010.79
2018-07-06T06:05:17.564Z,1010.79
2018-07-06T06:06:17.528Z,1010.80
2018-07-06T06:07:17.504Z,1010.83
2018-07-06T06:08:17.469Z,1010.82
2018-07-06T06:09:17.440Z,1010.81
2018-07-06T06:10:17.415Z,1010.87
2018-07-06T06:11:17.409Z,1010.97
2018-07-06T06:12:17.411Z,1010.94
2018-07-06T06:13:17.324Z,1010.91
2018-07-06T06:14:17.296Z,1010.95
2018-07-06T06:15:17.265Z,1010.96
2018-07-06T06:16:17.235Z,1010.96
2018-07-06T06:17:17.203Z,1011.04
2018-07-06T06:18:17.179Z,1011.03
2018-07-06T06:19:17.141Z,1010.98
2018-07-06T06:20:17.116Z,1011.04
2018-07-06T06:21:17.080Z,1011.00
2018-07-06T06:22:17.061Z,1010.97
2018-07-06T06:23:17.025Z,1011.02
2018-07-06T06:24:17.014Z,1011.04
2018-07-06T06:25:16.964Z,1011.03
2018-07-06T06:26:16.942Z,1011.06
2018-07-06T06:27:16.904Z,1011.00
2018-07-06T06:28:16.873Z,1010.99
2018-07-06T06:29:16.841Z,1011.09
2018-07-06T06:30:16.809Z,1011.08
2018-07-06T06:31:16.816Z,1011.07
2018-07-06T06:32:16.753Z,1011.04
2018-07-06T06:33:16.791Z,1011.05
2018-07-06T06:34:16.693Z,1011.04
2018-07-06T06:35:16.656Z,1011.07
2018-07-06T06:36:16.625Z,1011.10
2018-07-06T06:37:16.599Z,1011.08
2018-07-06T06:38:16.568Z,1011.05
2018-07-06T06:39:16.531Z,1011.11
2018-07-06T06:40:16.508Z,1011.14
2018-07-06T06:41:16.480Z,1011.14
2018-07-06T06:42:16.442Z,1011.20
2018-07-06T06:43:16.451Z,1011.14
2018-07-06T06:44:16.386Z,1011.11
2018-07-06T06:45:16.349Z,1011.16
2018-07-06T06:46:16.324Z,1011.16
2018-07-06T06:47:16.292Z,1011.15
2018-07-06T06:48:16.256Z,1011.20
2018-07-06T06:49:16.241Z,1011.20
2018-07-06T06:50:16.211Z,1011.19
2018-07-06T06:51:16.170Z,1011.23
2018-07-06T06:52:16.133Z,1011.23
2018-07-06T06:53:16.104Z,1011.24
2018-07-06T06:54:16.079Z,1011.19
2018-07-06T06:55:16.166Z,1011.21
2018-07-06T06:56:16.015Z,1011.21
2018-07-06T06:57:15.988Z,1011.22
2018-07-06T06:58:15.950Z,1011.25
2018-07-06T06:59:15.925Z,1011.23
2018-07-06T07:00:15.890Z,1011.28
2018-07-06T07:01:15.855Z,1011.20
2018-07-06T07:02:15.829Z,1011.30
2018-07-06T07:03:15.797Z,1011.29
2018-07-06T07:04:15.804Z,1011.29
2018-07-06T07:05:15.754Z,1011.25
2018-07-06T07:06:15.707Z,1011.28
2018-07-06T07:07:15.699Z,1011.31
2018-07-06T07:08:15.645Z,1011.30
2018-07-06T07:09:15.610Z,1011.23
2018-07-06T07:10:15.579Z,1011.35
2018-07-06T07:11:15.562Z,1011.33
2018-07-06T07:12:15.515Z,1011.30
2018-07-06T07:13:15.485Z,1011.31
2018-07-06T07:14:15.481Z,1011.34
2018-07-06T07:15:15.433Z,1011.41
2018-07-06T07:16:15.421Z,1011.37
2018-07-06T07:17:15.384Z,1011.37
2018-07-06T07:18:15.335Z,1011.34
2018-07-06T07:19:15.304Z,1011.32
2018-07-06T07:20:15.278Z,1011.31
2018-07-06T07:21:15.247Z,1011.35
2018-07-06T07:22:15.213Z,1011.39
2018-07-06T07:23:15.187Z,1011.41
2018-07-06T07:24:15.153Z,1011.41
2018-07-06T07:25:15.124Z,1011.43
2018-07-06T07:26:15.091Z,1011.37
2018-07-06T07:27:15.081Z,1011.42
2018-07-06T07:28:15.034Z,1011.36
2018-07-06T07:29:15.012Z,1011.40
2018-07-06T07:30:15.045Z,1011.46
2018-07-06T07:31:14.950Z,1011.46
2018-07-06T07:32:14.917Z,1011.39
2018-07-06T07:33:14.932Z,1011.33
2018-07-06T07:34:14.868Z,1011.35
2018-07-06T07:35:14.828Z,1011.38
2018-07-06T07:36:14.793Z,1011.39
2018-07-06T07:37:14.761Z,1011.42
2018-07-06T07:38:14.737Z,1011.39
2018-07-06T07:39:14.700Z,1011.40
2018-07-06T07:40:14.677Z,1011.42
2018-07-06T07:41:14.645Z,1011.39
2018-07-06T07:42:14.612Z,1011.43
2018-07-06T07:43:14.876Z,1011.44
2018-07-06T07:44:14.563Z,1011.43
2018-07-06T07:45:14.572Z,1011.44
2018-07-06T07:46:14.497Z,1011.45
2018-07-06T07:47:14.476Z,1011.48
2018-07-06T07:48:14.439Z,1011.45
2018-07-06T07:49:14.413Z,1011.55
2018-07-06T07:50:14.377Z,1011.49
2018-07-06T07:51:14.353Z,1011.50
2018-07-06T07:52:14.319Z,1011.46
2018-07-06T07:53:14.291Z,1011.53
2018-07-06T07:54:14.265Z,1011.51
2018-07-06T07:55:14.229Z,1011.51
2018-07-06T07:56:14.203Z,1011.50
2018-07-06T07:57:14.211Z,1011.52
2018-07-06T07:58:14.139Z,1011.53
2018-07-06T07:59:14.114Z,1011.52
2018-07-06T08:00:14.083Z,1011.49
2018-07-06T08:01:14.185Z,1011.52
2018-07-06T08:02:14.028Z,1011.46
2018-07-06T08:03:13.998Z,1011.56
2018-07-06T08:04:13.968Z,1011.47
2018-07-06T08:05:13.951Z,1011.51
2018-07-06T08:06:13.907Z,1011.54
2018-07-06T08:07:13.880Z,1011.53
2018-07-06T08:08:13.856Z,1011.58
2018-07-06T08:09:13.823Z,1011.58
2018-07-06T08:10:13.789Z,1011.61
2018-07-06T08:11:13.766Z,1011.62
2018-07-06T08:12:13.737Z,1011.59
2018-07-06T08:13:13.706Z,1011.64
2018-07-06T08:14:13.681Z,1011.70
2018-07-06T08:15:13.645Z,1011.69
2018-07-06T08:16:13.616Z,1011.74
2018-07-06T08:17:13.584Z,1011.74
2018-07-06T08:18:13.555Z,1011.81
2018-07-06T08:19:13.530Z,1011.81
2018-07-06T08:20:13.495Z,1011.81
2018-07-06T08:21:13.477Z,1011.81
2018-07-06T08:22:13.440Z,1011.83
2018-07-06T08:23:13.419Z,1011.77
2018-07-06T08:24:13.387Z,1011.83
2018-07-06T08:25:13.355Z,1011.86
2018-07-06T08:26:13.330Z,1011.86
2018-07-06T08:27:13.296Z,1011.89
2018-07-06T08:28:13.267Z,1011.89
2018-07-06T08:29:13.341Z,1011.91
2018-07-06T08:30:13.255Z,1011.92
2018-07-06T08:31:13.341Z,1011.93
2018-07-06T08:32:13.358Z,1011.88
2018-07-06T08:33:13.129Z,1011.92
2018-07-06T08:34:13.100Z,1011.90
2018-07-06T08:35:13.067Z,1011.93
2018-07-06T08:36:13.041Z,1011.90
2018-07-06T08:37:13.018Z,1011.89
2018-07-06T08:38:12.986Z,1011.92
2018-07-06T08:39:12.952Z,1011.93
2018-07-06T08:40:12.930Z,1011.86
2018-07-06T08:41:12.900Z,1011.92
2018-07-06T08:42:12.904Z,1011.90
2018-07-06T08:43:12.843Z,1011.90
2018-07-06T08:44:12.812Z,1011.91
2018-07-06T08:45:12.783Z,1011.96
2018-07-06T08:46:12.757Z,1011.94
2018-07-06T08:47:12.730Z,1011.91
2018-07-06T08:48:12.713Z,1011.95
2018-07-06T08:49:12.671Z,1011.88
2018-07-06T08:50:12.644Z,1011.91
2018-07-06T08:51:12.617Z,1011.90
2018-07-06T08:52:12.590Z,1011.93
2018-07-06T08:53:12.557Z,1011.91
2018-07-06T08:54:12.531Z,1011.94
2018-07-06T08:55:12.509Z,1011.96
2018-07-06T08:56:12.477Z,1011.96
2018-07-06T08:57:12.452Z,1012.02
2018-07-06T08:58:12.419Z,1011.95
2018-07-06T08:59:12.392Z,1011.97
2018-07-06T09:00:12.366Z,1011.98
2018-07-06T09:01:12.336Z,1011.91
2018-07-06T09:02:12.331Z,1011.98
2018-07-06T09:03:12.278Z,1011.96
2018-07-06T09:04:12.309Z,1011.94
2018-07-06T09:05:12.334Z,1012.00
2018-07-06T09:06:12.192Z,1012.02
2018-07-06T09:07:12.170Z,1012.01
2018-07-06T09:08:12.640Z,1012.00
2018-07-06T09:09:12.120Z,1011.99
2018-07-06T09:10:12.083Z,1011.93
2018-07-06T09:11:12.634Z,1011.99
2018-07-06T09:12:12.027Z,1012.01
2018-07-06T09:13:11.998Z,1012.03
2018-07-06T09:14:11.968Z,1012.01
2018-07-06T09:15:11.945Z,1011.99
2018-07-06T09:16:11.953Z,1011.98
2018-07-06T09:17:11.957Z,1011.97
2018-07-06T09:18:11.865Z,1012.06
2018-07-06T09:19:11.827Z,1012.03
2018-07-06T09:20:11.938Z,1012.05
2018-07-06T09:21:11.777Z,1012.04
2018-07-06T09:22:11.751Z,1012.08
2018-07-06T09:23:12.139Z,1012.05
2018-07-06T09:24:11.703Z,1012.05
2018-07-06T09:25:11.666Z,1012.11
2018-07-06T09:26:12.004Z,1012.21
2018-07-06T09:27:11.611Z,1012.16
2018-07-06T09:28:11.583Z,1012.14
2018-07-06T09:29:11.557Z,1012.18
2018-07-06T09:30:11.531Z,1012.14
2018-07-06T09:31:11.503Z,1012.10
2018-07-06T09:32:11.477Z,1012.12
2018-07-06T09:33:11.493Z,1012.01
2018-07-06T09:34:11.424Z,1012.06
2018-07-06T09:35:11.395Z,1012.09
2018-07-06T09:36:11.372Z,1012.12
2018-07-06T09:37:11.344Z,1012.10
2018-07-06T09:38:11.355Z,1012.07
2018-07-06T09:39:11.293Z,1012.05
2018-07-06T09:40:11.266Z,1012.11
2018-07-06T09:41:11.242Z,1012.15
2018-07-06T09:42:11.216Z,1012.09
2018-07-06T09:43:11.193Z,1012.14
2018-07-06T09:44:11.176Z,1012.05
2018-07-06T09:45:11.142Z,1012.15
2018-07-06T09:46:11.113Z,1012.12
2018-07-06T09:47:11.094Z,1012.04
2018-07-06T09:48:11.065Z,1012.01
2018-07-06T09:49:11.139Z,1012.03
2018-07-06T09:50:11.017Z,1012.08
2018-07-06T09:51:10.983Z,1012.06
2018-07-06T09:52:10.970Z,1012.06
2018-07-06T09:53:10.941Z,1011.99
2018-07-06T09:54:10.920Z,1012.01
2018-07-06T09:55:10.893Z,1012.02
2018-07-06T09:56:10.866Z,1012.01
2018-07-06T09:57:10.838Z,1012.08
2018-07-06T09:58:10.830Z,1012.08
2018-07-06T09:59:10.788Z,1012.08
2018-07-06T10:00:10.770Z,1012.05
2018-07-06T10:01:10.741Z,1012.07
2018-07-06T10:02:10.717Z,1012.06
2018-07-06T10:03:10.692Z,1012.05
2018-07-06T10:04:10.676Z,1012.07
2018-07-06T10:05:10.660Z,1012.02
2018-07-06T10:06:10.622Z,1012.01
2018-07-06T10:07:10.605Z,1012.06
2018-07-06T10:08:10.572Z,1012.02
2018-07-06T10:09:10.548Z,1012.10
2018-07-06T10:10:10.555Z,1012.04
2018-07-06T10:11:10.500Z,1012.02
2018-07-06T10:12:10.477Z,1012.05
2018-07-06T10:13:10.455Z,1012.10
2018-07-06T10:14:10.435Z,1012.06
2018-07-06T10:15:10.408Z,1012.04
2018-07-06T10:16:10.437Z,1012.01
2018-07-06T10:17:10.356Z,1012.04
2018-07-06T10:18:10.411Z,1011.96
2018-07-06T10:19:10.311Z,1012.03
2018-07-06T10:20:10.298Z,1012.03
2018-07-06T10:21:10.264Z,1011.92
2018-07-06T10:22:10.242Z,1011.96
2018-07-06T10:23:10.218Z,1011.98
2018-07-06T10:24:10.199Z,1011.97
2018-07-06T10:25:10.180Z,1011.98
2018-07-06T10:26:10.156Z,1012.01
2018-07-06T10:27:10.121Z,1012.00
2018-07-06T10:28:10.101Z,1012.02
2018-07-06T10:29:10.078Z,1012.07
2018-07-06T10:30:10.054Z,1012.07
2018-07-06T10:31:10.042Z,1012.06
2018-07-06T10:32:10.016Z,1012.05
2018-07-06T10:33:10.029Z,1012.02
2018-07-06T10:34:09.962Z,1012.01
2018-07-06T10:35:09.945Z,1011.95
2018-07-06T10:36:09.920Z,1012.02
2018-07-06T10:37:09.893Z,1011.98
2018-07-06T10:38:09.866Z,1011.94
2018-07-06T10:39:09.846Z,1011.98
2018-07-06T10:40:09.931Z,1011.95
2018-07-06T10:41:09.806Z,1011.94
2018-07-06T10:42:09.780Z,1011.97
2018-07-06T10:43:09.751Z,1011.97
2018-07-06T10:44:09.731Z,1012.00
2018-07-06T10:45:09.711Z,1011.98
2018-07-06T10:46:09.690Z,1011.97
2018-07-06T10:47:09.662Z,1011.96
2018-07-06T10:48:09.681Z,1011.92
2018-07-06T10:49:09.617Z,1011.91
2018-07-06T10:50:09.597Z,1011.84
2018-07-06T10:51:09.627Z,1011.89
2018-07-06T10:52:09.554Z,1011.88
2018-07-06T10:53:09.526Z,1011.88
2018-07-06T10:54:09.499Z,1011.90
2018-07-06T10:55:09.482Z,1011.95
2018-07-06T10:56:09.461Z,1011.93
2018-07-06T10:57:09.440Z,1011.92
2018-07-06T10:58:09.415Z,1011.91
2018-07-06T10:59:09.454Z,1011.94
2018-07-06T11:00:09.440Z,1011.96
2018-07-06T11:01:09.344Z,1011.98
2018-07-06T11:02:09.809Z,1011.87
2018-07-06T11:03:09.303Z,1011.93
2018-07-06T11:04:09.277Z,1011.94
2018-07-06T11:05:09.870Z,1011.96
2018-07-06T11:06:09.235Z,1011.94
2018-07-06T11:07:09.208Z,1011.98
2018-07-06T11:08:09.189Z,1011.98
2018-07-06T11:09:09.214Z,1011.96
2018-07-06T11:10:09.149Z,1011.93
2018-07-06T11:11:09.123Z,1011.96
2018-07-06T11:12:09.095Z,1011.89
2018-07-06T11:13:09.080Z,1012.00
2018-07-06T11:14:09.064Z,1012.00
2018-07-06T11:15:09.039Z,1011.98
2018-07-06T11:16:09.013Z,1012.03
2018-07-06T11:17:08.990Z,1012.03
2018-07-06T11:18:08.962Z,1012.05
2018-07-06T11:19:08.982Z,1012.08
2018-07-06T11:20:08.927Z,1012.05
2018-07-06T11:21:08.901Z,1012.05
2018-07-06T11:22:09.130Z,1012.01
2018-07-06T11:23:08.851Z,1011.93
2018-07-06T11:24:08.841Z,1011.97
2018-07-06T11:25:08.829Z,1011.96
2018-07-06T11:26:08.814Z,1011.92
2018-07-06T11:27:08.764Z,1011.90
2018-07-06T11:28:08.745Z,1011.89
2018-07-06T11:29:08.739Z,1011.88
2018-07-06T11:30:08.702Z,1011.84
2018-07-06T11:31:08.673Z,1011.85
2018-07-06T11:32:08.679Z,1011.79
2018-07-06T11:33:08.654Z,1011.80
2018-07-06T11:34:08.610Z,1011.85
2018-07-06T11:35:08.592Z,1011.87
2018-07-06T11:36:08.576Z,1011.81
2018-07-06T11:37:08.552Z,1011.70
2018-07-06T11:38:08.582Z,1011.78
2018-07-06T11:39:08.499Z,1011.74
2018-07-06T11:40:08.478Z,1011.68
2018-07-06T11:41:08.457Z,1011.72
2018-07-06T11:42:08.446Z,1011.81
2018-07-06T11:43:08.412Z,1011.77
2018-07-06T11:44:08.388Z,1011.78
2018-07-06T11:45:08.495Z,1011.82
2018-07-06T11:46:08.358Z,1011.76
2018-07-06T11:47:08.320Z,1011.78
2018-07-06T11:48:08.304Z,1011.80
2018-07-06T11:49:08.281Z,1011.80
2018-07-06T11:50:08.255Z,1011.79
2018-07-06T11:51:08.246Z,1011.79
2018-07-06T11:52:08.215Z,1011.81
2018-07-06T11:53:08.216Z,1011.83
2018-07-06T11:54:08.173Z,1011.77
2018-07-06T11:55:08.146Z,1011.81
2018-07-06T11:56:08.207Z,1011.82
2018-07-06T11:57:08.107Z,1011.83
2018-07-06T11:58:08.085Z,1011.88
2018-07-06T11:59:08.059Z,1011.79
2018-07-06T12:00:08.038Z,1011.82
2018-07-06T12:01:08.016Z,1011.85
2018-07-06T12:02:08.000Z,1011.81
2018-07-06T12:03:07.974Z,1011.85
2018-07-06T12:04:07.992Z,1011.82
2018-07-06T12:05:07.931Z,1011.90